createdAt,value
2019-05-07T00:01:03.834Z,9.40
2019-05-07T00:02:10.410Z,9.40
2019-05-07T00:03:13.674Z,9.40
2019-05-07T00:04:16.790Z,9.40
2019-05-07T00:05:19.745Z,9.50
2019-05-07T00:06:23.178Z,9.50
2019-05-07T00:07:26.705Z,9.50
2019-05-07T00:08:32.166Z,9.50
2019-05-07T00:09:35.398Z,9.50
2019-05-07T00:10:38.388Z,9.60
2019-05-07T00:11:42.579Z,9.60
2019-05-07T00:12:45.648Z,9.60
2019-05-07T00:13:52.222Z,9.60
2019-05-07T00:15:01.287Z,9.60
2019-05-07T00:16:02.443Z,9.70
2019-05-07T00:17:05.948Z,9.70
2019-05-07T00:18:09.065Z,9.60
2019-05-07T00:19:13.006Z,9.60
2019-05-07T00:20:16.674Z,9.60
2019-05-07T00:21:19.673Z,9.60
2019-05-07T00:22:22.858Z,9.60
2019-05-07T00:23:26.262Z,9.60
2019-05-07T00:24:29.381Z,9.70
2019-05-07T00:25:33.005Z,9.60
2019-05-07T00:26:36.278Z,9.70
2019-05-07T00:27:39.277Z,9.70
2019-05-07T00:28:43.225Z,9.70
2019-05-07T00:29:46.678Z,9.70
2019-05-07T00:30:51.985Z,9.70
2019-05-07T00:31:54.426Z,9.70
2019-05-07T00:32:57.497Z,9.70
2019-05-07T00:34:02.819Z,9.70
2019-05-07T00:35:07.966Z,9.70
2019-05-07T00:36:32.225Z,9.70
2019-05-07T00:37:43.452Z,9.70
2019-05-07T00:38:49.385Z,9.70
2019-05-07T00:40:31.994Z,9.70
2019-05-07T00:41:42.706Z,9.70
2019-05-07T00:43:03.562Z,9.70
2019-05-07T00:44:06.902Z,9.70
2019-05-07T00:45:21.619Z,9.70
2019-05-07T00:46:27.060Z,9.70
2019-05-07T00:47:29.994Z,9.70
2019-05-07T00:48:33.099Z,9.80
2019-05-07T00:49:36.065Z,9.80
2019-05-07T00:50:41.931Z,9.80
2019-05-07T00:51:44.831Z,9.80
2019-05-07T00:52:47.761Z,9.70
2019-05-07T00:53:52.065Z,9.70
2019-05-07T00:54:55.077Z,9.70
2019-05-07T00:55:58.069Z,9.80
2019-05-07T00:57:02.975Z,9.80
2019-05-07T00:58:05.724Z,9.80
2019-05-07T00:59:08.681Z,9.80
2019-05-07T01:00:13.060Z,9.80
2019-05-07T01:01:16.185Z,9.80
2019-05-07T01:02:22.393Z,9.80
2019-05-07T01:03:25.303Z,9.80
2019-05-07T01:04:28.265Z,9.80
2019-05-07T01:05:32.588Z,9.80
2019-05-07T01:06:35.786Z,9.80
2019-05-07T01:07:38.707Z,9.80
2019-05-07T01:08:43.073Z,9.70
2019-05-07T01:09:46.290Z,9.70
2019-05-07T01:10:49.217Z,9.70
2019-05-07T01:11:52.511Z,9.70
2019-05-07T01:12:55.466Z,9.70
2019-05-07T01:13:58.376Z,9.70
2019-05-07T01:15:02.870Z,9.70
2019-05-07T01:16:06.350Z,9.70
2019-05-07T01:17:09.245Z,9.70
2019-05-07T01:18:12.495Z,9.70
2019-05-07T01:19:15.456Z,9.70
2019-05-07T01:20:18.512Z,9.80
2019-05-07T01:21:22.786Z,9.70
2019-05-07T01:22:25.813Z,9.70
2019-05-07T01:23:28.727Z,9.70
2019-05-07T01:24:32.746Z,9.70
2019-05-07T01:25:35.673Z,9.70
2019-05-07T01:26:38.629Z,9.70
2019-05-07T01:27:42.690Z,9.70
2019-05-07T01:29:02.923Z,9.70
2019-05-07T01:30:06.197Z,9.70
2019-05-07T01:31:09.184Z,9.70
2019-05-07T01:32:24.865Z,9.70
2019-05-07T01:33:35.585Z,9.70
2019-05-07T01:34:46.778Z,9.70
2019-05-07T01:36:08.782Z,9.70
2019-05-07T01:37:12.392Z,9.80
2019-05-07T01:38:17.235Z,9.70
2019-05-07T01:39:20.120Z,9.70
2019-05-07T01:40:23.042Z,9.70
2019-05-07T01:41:25.997Z,9.80
2019-05-07T01:42:28.990Z,9.80
2019-05-07T01:43:32.168Z,9.80
2019-05-07T01:44:35.145Z,9.80
2019-05-07T01:45:48.783Z,9.80
2019-05-07T01:46:49.036Z,9.80
2019-05-07T01:47:53.093Z,9.80
2019-05-07T01:48:57.591Z,9.80
2019-05-07T01:50:02.808Z,9.80
2019-05-07T01:51:05.543Z,9.80
2019-05-07T01:52:08.457Z,9.70
2019-05-07T01:53:12.262Z,9.70
2019-05-07T01:54:15.243Z,9.70
2019-05-07T01:55:18.828Z,9.70
2019-05-07T01:56:22.934Z,9.70
2019-05-07T01:57:26.021Z,9.70
2019-05-07T01:58:28.937Z,9.70
2019-05-07T01:59:32.286Z,9.80
2019-05-07T02:00:35.429Z,9.70
2019-05-07T02:01:38.342Z,9.70
2019-05-07T02:02:52.069Z,9.70
2019-05-07T02:04:12.645Z,9.70
2019-05-07T02:05:42.444Z,9.70
2019-05-07T02:07:04.059Z,9.70
2019-05-07T02:08:09.755Z,9.70
2019-05-07T02:09:47.548Z,9.70
2019-05-07T02:11:02.145Z,9.70
2019-05-07T02:12:16.909Z,9.70
2019-05-07T02:13:21.870Z,9.70
2019-05-07T02:14:24.681Z,9.70
2019-05-07T02:15:27.617Z,9.70
2019-05-07T02:16:32.487Z,9.70
2019-05-07T02:17:35.257Z,9.70
2019-05-07T02:18:38.201Z,9.70
2019-05-07T02:19:42.477Z,9.70
2019-05-07T02:20:45.546Z,9.70
2019-05-07T02:21:48.624Z,9.70
2019-05-07T02:22:53.190Z,9.60
2019-05-07T02:23:56.527Z,9.70
2019-05-07T02:24:59.521Z,9.70
2019-05-07T02:26:03.273Z,9.70
2019-05-07T02:27:06.174Z,9.70
2019-05-07T02:28:09.150Z,9.60
2019-05-07T02:29:12.320Z,9.60
2019-05-07T02:30:15.782Z,9.60
2019-05-07T02:31:18.841Z,9.60
2019-05-07T02:32:24.125Z,9.60
2019-05-07T02:33:26.594Z,9.60
2019-05-07T02:34:30.166Z,9.50
2019-05-07T02:35:33.691Z,9.50
2019-05-07T02:36:37.078Z,9.50
2019-05-07T02:37:51.258Z,9.50
2019-05-07T02:38:54.736Z,9.50
2019-05-07T02:40:08.042Z,9.50
2019-05-07T02:41:17.597Z,9.50
2019-05-07T02:42:23.698Z,9.50
2019-05-07T02:43:25.597Z,9.50
2019-05-07T02:44:28.554Z,9.50
2019-05-07T02:45:39.690Z,9.50
2019-05-07T02:47:07.915Z,9.50
2019-05-07T02:48:12.932Z,9.50
2019-05-07T02:49:53.367Z,9.50
2019-05-07T02:51:03.909Z,9.60
2019-05-07T02:52:23.338Z,9.50
2019-05-07T02:53:33.689Z,9.50
2019-05-07T02:54:54.734Z,9.50
2019-05-07T02:55:58.232Z,9.50
2019-05-07T02:57:03.193Z,9.50
2019-05-07T02:58:06.342Z,9.50
2019-05-07T02:59:09.270Z,9.50
2019-05-07T03:00:14.703Z,9.50
2019-05-07T03:01:17.754Z,9.50
2019-05-07T03:02:23.952Z,9.50
2019-05-07T03:03:25.496Z,9.50
2019-05-07T03:04:33.098Z,9.50
2019-05-07T03:05:35.180Z,9.50
2019-05-07T03:06:38.240Z,9.50
2019-05-07T03:07:42.775Z,9.50
2019-05-07T03:08:45.950Z,9.60
2019-05-07T03:09:48.940Z,9.60
2019-05-07T03:10:52.808Z,9.60
2019-05-07T03:11:56.105Z,9.60
2019-05-07T03:12:59.342Z,9.60
2019-05-07T03:14:03.199Z,9.60
2019-05-07T03:15:06.434Z,9.60
2019-05-07T03:16:09.432Z,9.60
2019-05-07T03:17:13.399Z,9.60
2019-05-07T03:18:18.964Z,9.60
2019-05-07T03:19:23.897Z,9.60
2019-05-07T03:20:33.388Z,9.60
2019-05-07T03:21:55.804Z,9.60
2019-05-07T03:22:59.331Z,9.60
2019-05-07T03:24:16.352Z,9.60
2019-05-07T03:25:23.276Z,9.60
2019-05-07T03:26:29.716Z,9.60
2019-05-07T03:27:34.225Z,9.50
2019-05-07T03:28:53.776Z,9.50
2019-05-07T03:30:16.750Z,9.50
2019-05-07T03:31:25.999Z,9.50
2019-05-07T03:32:37.971Z,9.50
2019-05-07T03:33:47.953Z,9.60
2019-05-07T03:35:06.589Z,9.50
2019-05-07T03:36:08.035Z,9.50
2019-05-07T03:37:13.522Z,9.50
2019-05-07T03:38:16.689Z,9.60
2019-05-07T03:39:20.243Z,9.60
2019-05-07T03:40:23.257Z,9.60
2019-05-07T03:41:26.592Z,9.60
2019-05-07T03:42:33.598Z,9.60
2019-05-07T03:43:36.259Z,9.60
2019-05-07T03:44:53.786Z,9.70
2019-05-07T03:46:08.234Z,9.70
2019-05-07T03:47:19.556Z,9.60
2019-05-07T03:48:24.245Z,9.50
2019-05-07T03:49:27.772Z,9.60
2019-05-07T03:50:33.644Z,9.60
2019-05-07T03:51:35.413Z,9.50
2019-05-07T03:52:38.598Z,9.50
2019-05-07T03:53:43.647Z,9.50
2019-05-07T03:54:46.227Z,9.50
2019-05-07T03:55:49.220Z,9.50
2019-05-07T03:56:52.963Z,9.50
2019-05-07T03:57:56.084Z,9.40
2019-05-07T03:58:58.979Z,9.40
2019-05-07T04:00:04.216Z,9.40
2019-05-07T04:01:06.734Z,9.40
2019-05-07T04:02:09.666Z,9.50
2019-05-07T04:03:13.988Z,9.40
2019-05-07T04:04:17.338Z,9.50
2019-05-07T04:05:22.926Z,9.50
2019-05-07T04:06:25.031Z,9.50
2019-05-07T04:07:28.074Z,9.50
2019-05-07T04:08:33.387Z,9.50
2019-05-07T04:09:35.839Z,9.40
2019-05-07T04:10:39.083Z,9.50
2019-05-07T04:11:43.309Z,9.50
2019-05-07T04:12:46.769Z,9.50
2019-05-07T04:13:49.731Z,9.40
2019-05-07T04:14:53.467Z,9.50
2019-05-07T04:15:56.617Z,9.40
2019-05-07T04:17:14.420Z,9.50
2019-05-07T04:18:04.577Z,9.50
2019-05-07T04:19:07.522Z,9.50
2019-05-07T04:20:13.541Z,9.50
2019-05-07T04:21:15.352Z,9.50
2019-05-07T04:22:19.177Z,9.60
2019-05-07T04:23:23.325Z,9.60
2019-05-07T04:24:35.716Z,9.60
2019-05-07T04:26:06.117Z,9.50
2019-05-07T04:27:23.847Z,9.60
2019-05-07T04:28:49.211Z,9.50
2019-05-07T04:29:53.219Z,9.50
2019-05-07T04:30:56.698Z,9.50
2019-05-07T04:32:03.274Z,9.50
2019-05-07T04:33:06.538Z,9.50
2019-05-07T04:34:28.914Z,9.50
2019-05-07T04:35:43.637Z,9.60
2019-05-07T04:36:48.458Z,9.60
2019-05-07T04:37:53.379Z,9.60
2019-05-07T04:38:56.044Z,9.60
2019-05-07T04:40:02.893Z,9.60
2019-05-07T04:41:04.441Z,9.70
2019-05-07T04:42:07.413Z,9.60
2019-05-07T04:43:13.202Z,9.70
2019-05-07T04:44:15.269Z,9.80
2019-05-07T04:45:18.296Z,9.80
2019-05-07T04:46:23.610Z,9.80
2019-05-07T04:47:38.583Z,9.90
2019-05-07T04:48:34.046Z,9.90
2019-05-07T04:49:36.105Z,9.90
2019-05-07T04:50:46.683Z,9.90
2019-05-07T04:52:11.319Z,9.90
2019-05-07T04:53:13.869Z,9.80
2019-05-07T04:54:16.922Z,9.70
2019-05-07T04:55:22.749Z,9.80
2019-05-07T04:56:24.586Z,9.80
2019-05-07T04:57:27.537Z,9.80
2019-05-07T04:58:33.175Z,9.80
2019-05-07T04:59:35.183Z,9.80
2019-05-07T05:00:38.233Z,9.80
2019-05-07T05:01:46.666Z,9.80
2019-05-07T05:03:12.841Z,9.90
2019-05-07T05:04:25.467Z,9.90
2019-05-07T05:05:23.529Z,9.90
2019-05-07T05:06:29.768Z,9.90
2019-05-07T05:07:33.489Z,10.00
2019-05-07T05:08:36.575Z,10.00
2019-05-07T05:09:42.461Z,10.00
2019-05-07T05:10:44.514Z,10.00
2019-05-07T05:11:47.426Z,10.00
2019-05-07T05:12:53.382Z,10.00
2019-05-07T05:13:55.465Z,10.10
2019-05-07T05:14:58.377Z,10.10
2019-05-07T05:16:22.431Z,10.10
2019-05-07T05:17:27.221Z,10.00
2019-05-07T05:18:30.132Z,10.00
2019-05-07T05:19:33.061Z,10.10
2019-05-07T05:21:08.335Z,10.10
2019-05-07T05:22:32.182Z,10.00
2019-05-07T05:23:58.032Z,10.00
2019-05-07T05:25:12.159Z,10.00
2019-05-07T05:26:14.879Z,10.10
2019-05-07T05:27:17.776Z,10.20
2019-05-07T05:28:24.873Z,10.30
2019-05-07T05:29:27.866Z,10.20
2019-05-07T05:30:42.739Z,10.20
2019-05-07T05:31:46.105Z,10.30
2019-05-07T05:32:49.038Z,10.30
2019-05-07T05:33:52.617Z,10.40
2019-05-07T05:34:57.548Z,10.50
2019-05-07T05:36:02.909Z,10.60
2019-05-07T05:37:05.690Z,10.60
2019-05-07T05:38:08.645Z,10.70
2019-05-07T05:39:13.139Z,10.80
2019-05-07T05:40:17.184Z,10.80
2019-05-07T05:41:22.479Z,10.90
2019-05-07T05:42:34.946Z,10.90
2019-05-07T05:44:15.053Z,10.90
2019-05-07T05:45:33.533Z,10.90
2019-05-07T05:46:36.604Z,10.80
2019-05-07T05:47:42.884Z,10.80
2019-05-07T05:48:44.515Z,10.70
2019-05-07T05:49:47.435Z,10.70
2019-05-07T05:51:05.770Z,10.70
2019-05-07T05:52:36.984Z,10.70
2019-05-07T05:53:54.049Z,10.70
2019-05-07T05:55:03.208Z,10.70
2019-05-07T05:56:12.217Z,10.70
2019-05-07T05:57:34.274Z,10.70
2019-05-07T05:58:52.698Z,10.70
2019-05-07T06:00:22.121Z,10.70
2019-05-07T06:01:47.297Z,10.70
2019-05-07T06:03:08.149Z,10.70
2019-05-07T06:04:19.102Z,10.70
2019-05-07T06:05:47.169Z,10.70
2019-05-07T06:07:10.489Z,10.70
2019-05-07T06:08:26.942Z,10.70
2019-05-07T06:09:49.352Z,10.70
2019-05-07T06:11:21.850Z,10.70
2019-05-07T06:12:52.253Z,10.70
2019-05-07T06:14:02.269Z,10.70
2019-05-07T06:15:25.561Z,10.70
2019-05-07T06:16:32.928Z,10.70
2019-05-07T06:17:47.185Z,10.70
2019-05-07T06:19:22.582Z,10.70
2019-05-07T06:20:43.696Z,10.70
2019-05-07T06:22:01.998Z,10.70
2019-05-07T06:23:22.303Z,10.80
2019-05-07T06:24:52.152Z,10.90
2019-05-07T06:25:54.992Z,10.90
2019-05-07T06:26:57.933Z,10.90
2019-05-07T06:28:01.979Z,10.90
2019-05-07T06:29:04.949Z,10.90
2019-05-07T06:30:08.312Z,10.90
2019-05-07T06:31:12.694Z,11.00
2019-05-07T06:32:16.842Z,11.00
2019-05-07T06:33:20.057Z,11.00
2019-05-07T06:34:23.045Z,11.00
2019-05-07T06:35:26.005Z,11.00
2019-05-07T06:36:32.824Z,11.10
2019-05-07T06:37:35.653Z,11.10
2019-05-07T06:38:45.016Z,11.10
2019-05-07T06:39:56.037Z,11.20
2019-05-07T06:41:15.650Z,11.20
2019-05-07T06:42:42.666Z,11.20
2019-05-07T06:43:49.305Z,11.30
2019-05-07T06:45:12.337Z,11.40
2019-05-07T06:46:15.553Z,11.40
2019-05-07T06:47:18.565Z,11.40
2019-05-07T06:48:34.691Z,11.40
2019-05-07T06:49:27.281Z,11.40
2019-05-07T06:50:32.542Z,11.40
2019-05-07T06:51:35.039Z,11.40
2019-05-07T06:52:37.997Z,11.50
2019-05-07T06:53:42.274Z,11.50
2019-05-07T06:54:45.544Z,11.50
2019-05-07T06:55:49.501Z,11.60
2019-05-07T06:56:52.549Z,11.60
2019-05-07T06:57:55.673Z,11.50
2019-05-07T06:59:18.155Z,11.60
2019-05-07T07:00:39.097Z,11.70
2019-05-07T07:02:02.374Z,11.70
2019-05-07T07:03:25.635Z,11.70
2019-05-07T07:04:56.932Z,11.70
2019-05-07T07:06:20.243Z,11.70
2019-05-07T07:07:37.377Z,11.80
2019-05-07T07:09:02.901Z,11.60
2019-05-07T07:10:32.752Z,11.70
2019-05-07T07:11:42.396Z,11.60
2019-05-07T07:12:46.445Z,11.70
2019-05-07T07:13:49.369Z,11.70
2019-05-07T07:14:52.493Z,11.80
2019-05-07T07:15:55.422Z,11.80
2019-05-07T07:16:58.464Z,11.80
2019-05-07T07:18:03.169Z,11.90
2019-05-07T07:19:06.449Z,11.90
2019-05-07T07:20:12.712Z,11.90
2019-05-07T07:21:15.970Z,12.00
2019-05-07T07:22:18.922Z,12.00
2019-05-07T07:23:22.674Z,12.00
2019-05-07T07:24:25.918Z,12.10
2019-05-07T07:25:28.835Z,12.10
2019-05-07T07:26:39.417Z,12.10
2019-05-07T07:27:42.950Z,12.20
2019-05-07T07:28:45.992Z,12.20
2019-05-07T07:29:55.568Z,12.30
2019-05-07T07:31:13.244Z,12.30
2019-05-07T07:32:23.004Z,12.30
2019-05-07T07:33:28.101Z,12.40
2019-05-07T07:34:34.429Z,12.40
2019-05-07T07:35:37.440Z,12.40
2019-05-07T07:36:47.397Z,12.40
2019-05-07T07:37:50.328Z,12.50
2019-05-07T07:38:53.283Z,12.50
2019-05-07T07:40:32.565Z,12.40
2019-05-07T07:41:38.481Z,12.50
2019-05-07T07:42:42.722Z,12.40
2019-05-07T07:43:45.739Z,12.40
2019-05-07T07:44:51.911Z,12.40
2019-05-07T07:45:54.990Z,12.40
2019-05-07T07:46:58.099Z,12.50
2019-05-07T07:48:02.307Z,12.50
2019-05-07T07:49:10.992Z,12.60
2019-05-07T07:50:12.944Z,12.60
2019-05-07T07:51:16.034Z,12.60
2019-05-07T07:52:19.044Z,12.70
2019-05-07T07:53:22.675Z,12.70
2019-05-07T07:54:26.085Z,12.70
2019-05-07T07:55:37.542Z,12.70
2019-05-07T07:57:12.637Z,12.70
2019-05-07T07:58:31.566Z,12.80
2019-05-07T07:59:52.850Z,12.80
2019-05-07T08:01:02.968Z,12.80
2019-05-07T08:02:32.248Z,12.90
2019-05-07T08:03:35.419Z,12.90
2019-05-07T08:04:38.413Z,13.00
2019-05-07T08:05:42.817Z,13.00
2019-05-07T08:06:47.685Z,13.00
2019-05-07T08:07:52.808Z,13.00
2019-05-07T08:08:55.366Z,13.00
2019-05-07T08:09:58.429Z,13.00
2019-05-07T08:11:02.441Z,13.00
2019-05-07T08:12:06.271Z,13.00
2019-05-07T08:13:09.288Z,13.00
2019-05-07T08:14:12.775Z,13.00
2019-05-07T08:15:20.882Z,13.00
2019-05-07T08:16:22.266Z,13.10
2019-05-07T08:17:25.316Z,13.10
2019-05-07T08:18:28.472Z,13.10
2019-05-07T08:19:32.771Z,13.10
2019-05-07T08:20:36.201Z,13.10
2019-05-07T08:21:39.128Z,13.10
2019-05-07T08:22:42.390Z,13.10
2019-05-07T08:23:45.915Z,13.10
2019-05-07T08:24:49.249Z,13.10
2019-05-07T08:25:52.711Z,13.20
2019-05-07T08:26:55.949Z,13.30
2019-05-07T08:27:58.978Z,13.30
2019-05-07T08:29:03.012Z,13.40
2019-05-07T08:30:07.409Z,13.40
2019-05-07T08:31:32.900Z,13.30
2019-05-07T08:32:58.906Z,13.40
2019-05-07T08:34:14.251Z,13.40
2019-05-07T08:35:36.791Z,13.60
2019-05-07T08:36:42.015Z,13.60
2019-05-07T08:37:45.221Z,13.60
2019-05-07T08:38:57.465Z,13.70
2019-05-07T08:40:02.921Z,13.70
2019-05-07T08:41:05.424Z,13.70
2019-05-07T08:42:09.138Z,13.70
2019-05-07T08:43:12.609Z,13.70
2019-05-07T08:44:18.097Z,13.70
2019-05-07T08:45:38.859Z,13.80
2019-05-07T08:46:59.804Z,13.80
2019-05-07T08:48:05.761Z,13.80
2019-05-07T08:49:09.382Z,13.80
2019-05-07T08:50:12.503Z,13.90
2019-05-07T08:51:15.456Z,13.90
2019-05-07T08:52:18.365Z,13.90
2019-05-07T08:53:22.516Z,13.90
2019-05-07T08:54:25.450Z,13.90
2019-05-07T08:55:29.118Z,13.90
2019-05-07T08:56:32.581Z,14.00
2019-05-07T08:57:35.777Z,13.90
2019-05-07T08:58:39.198Z,13.90
2019-05-07T08:59:57.235Z,13.90
2019-05-07T09:00:47.461Z,13.90
2019-05-07T09:01:51.979Z,13.90
2019-05-07T09:02:55.056Z,13.90
2019-05-07T09:03:58.410Z,13.90
2019-05-07T09:05:02.929Z,13.90
2019-05-07T09:06:06.156Z,13.90
2019-05-07T09:07:10.258Z,13.90
2019-05-07T09:08:13.905Z,13.90
2019-05-07T09:09:16.880Z,14.00
2019-05-07T09:10:21.709Z,14.00
2019-05-07T09:11:24.654Z,14.00
2019-05-07T09:12:28.282Z,14.10
2019-05-07T09:13:33.291Z,14.10
2019-05-07T09:14:37.645Z,14.10
2019-05-07T09:15:42.419Z,14.20
2019-05-07T09:16:46.740Z,14.20
2019-05-07T09:17:52.538Z,14.20
2019-05-07T09:18:55.160Z,14.20
2019-05-07T09:19:58.295Z,14.30
2019-05-07T09:21:02.206Z,14.30
2019-05-07T09:22:05.220Z,14.30
2019-05-07T09:23:08.521Z,14.30
2019-05-07T09:24:12.228Z,14.30
2019-05-07T09:25:15.581Z,14.20
2019-05-07T09:26:22.146Z,14.30
2019-05-07T09:27:44.454Z,14.30
2019-05-07T09:29:02.526Z,14.30
2019-05-07T09:30:17.826Z,14.40
2019-05-07T09:31:27.163Z,14.50
2019-05-07T09:32:52.157Z,14.50
2019-05-07T09:33:55.685Z,14.50
2019-05-07T09:35:02.149Z,14.60
2019-05-07T09:36:07.277Z,14.70
2019-05-07T09:37:12.587Z,14.70
2019-05-07T09:38:15.553Z,14.70
2019-05-07T09:39:18.559Z,14.70
2019-05-07T09:40:21.798Z,14.70
2019-05-07T09:41:27.344Z,14.70
2019-05-07T09:42:30.268Z,14.80
2019-05-07T09:43:33.286Z,14.80
2019-05-07T09:44:36.601Z,14.80
2019-05-07T09:45:41.890Z,14.80
2019-05-07T09:46:46.649Z,14.70
2019-05-07T09:47:49.223Z,14.70
2019-05-07T09:48:52.386Z,14.70
2019-05-07T09:50:04.548Z,14.70
2019-05-07T09:51:02.203Z,14.70
2019-05-07T09:52:06.083Z,14.70
2019-05-07T09:53:09.030Z,14.70
2019-05-07T09:54:12.689Z,14.80
2019-05-07T09:55:18.360Z,14.80
2019-05-07T09:56:22.905Z,14.80
2019-05-07T09:57:31.222Z,14.80
2019-05-07T09:58:36.625Z,14.90
2019-05-07T09:59:35.464Z,14.90
2019-05-07T10:00:38.721Z,14.90
2019-05-07T10:01:41.741Z,14.90
2019-05-07T10:02:44.820Z,14.90
2019-05-07T10:03:47.978Z,15.00
2019-05-07T10:04:52.636Z,15.00
2019-05-07T10:05:55.772Z,15.10
2019-05-07T10:06:58.879Z,15.10
2019-05-07T10:08:02.047Z,15.10
2019-05-07T10:09:06.027Z,15.20
2019-05-07T10:10:11.782Z,15.30
2019-05-07T10:11:22.555Z,15.40
2019-05-07T10:12:47.473Z,15.40
2019-05-07T10:13:55.593Z,15.40
2019-05-07T10:14:58.572Z,15.50
2019-05-07T10:16:03.838Z,15.40
2019-05-07T10:17:17.413Z,15.40
2019-05-07T10:18:22.702Z,15.40
2019-05-07T10:19:25.537Z,15.40
2019-05-07T10:20:32.543Z,15.30
2019-05-07T10:21:34.310Z,15.40
2019-05-07T10:22:37.370Z,15.40
2019-05-07T10:23:41.717Z,15.40
2019-05-07T10:24:44.637Z,15.40
2019-05-07T10:25:52.223Z,15.40
2019-05-07T10:26:55.711Z,15.30
2019-05-07T10:27:58.906Z,15.30
2019-05-07T10:29:02.240Z,15.30
2019-05-07T10:30:05.346Z,15.30
2019-05-07T10:31:09.253Z,15.30
2019-05-07T10:32:12.828Z,15.30
2019-05-07T10:33:16.980Z,15.30
2019-05-07T10:34:22.696Z,15.30
2019-05-07T10:35:25.263Z,15.30
2019-05-07T10:36:28.289Z,15.30
2019-05-07T10:37:31.844Z,15.30
2019-05-07T10:38:35.015Z,15.40
2019-05-07T10:39:37.936Z,15.40
2019-05-07T10:40:40.986Z,15.40
2019-05-07T10:41:44.207Z,15.40
2019-05-07T10:42:48.401Z,15.50
2019-05-07T10:43:51.986Z,15.60
2019-05-07T10:45:03.369Z,15.60
2019-05-07T10:46:23.761Z,15.60
2019-05-07T10:47:41.842Z,15.60
2019-05-07T10:49:13.069Z,15.60
2019-05-07T10:50:35.544Z,15.60
2019-05-07T10:51:27.404Z,15.50
2019-05-07T10:52:31.902Z,15.50
2019-05-07T10:53:34.999Z,15.50
2019-05-07T10:54:37.955Z,15.60
2019-05-07T10:55:42.231Z,15.60
2019-05-07T10:56:47.761Z,15.60
2019-05-07T10:57:52.752Z,15.70
2019-05-07T10:58:55.736Z,15.70
2019-05-07T10:59:59.030Z,15.70
2019-05-07T11:01:02.996Z,15.80
2019-05-07T11:02:12.617Z,15.80
2019-05-07T11:03:15.833Z,15.90
2019-05-07T11:04:18.757Z,15.90
2019-05-07T11:05:22.056Z,15.90
2019-05-07T11:06:25.080Z,15.90
2019-05-07T11:07:28.100Z,15.90
2019-05-07T11:08:32.981Z,15.90
2019-05-07T11:09:35.874Z,15.90
2019-05-07T11:10:39.185Z,16.00
2019-05-07T11:11:42.382Z,16.00
2019-05-07T11:12:45.369Z,16.10
2019-05-07T11:13:48.859Z,16.10
2019-05-07T11:14:51.761Z,16.00
2019-05-07T11:16:02.392Z,16.10
2019-05-07T11:17:22.313Z,16.10
2019-05-07T11:18:29.900Z,16.20
2019-05-07T11:19:32.878Z,16.20
2019-05-07T11:20:46.576Z,16.30
2019-05-07T11:21:41.896Z,16.40
2019-05-07T11:22:45.174Z,16.40
2019-05-07T11:23:48.219Z,16.40
2019-05-07T11:24:52.234Z,16.40
2019-05-07T11:25:55.254Z,16.40
2019-05-07T11:26:59.511Z,16.40
2019-05-07T11:28:02.942Z,16.40
2019-05-07T11:29:05.862Z,16.40
2019-05-07T11:30:11.801Z,16.40
2019-05-07T11:31:14.653Z,16.40
2019-05-07T11:32:17.603Z,16.40
2019-05-07T11:33:22.039Z,16.40
2019-05-07T11:34:25.292Z,16.40
2019-05-07T11:35:29.040Z,16.40
2019-05-07T11:36:34.178Z,16.40
2019-05-07T11:37:36.897Z,16.40
2019-05-07T11:38:41.842Z,16.40
2019-05-07T11:39:44.720Z,16.40
2019-05-07T11:40:47.654Z,16.40
2019-05-07T11:42:25.092Z,16.40
2019-05-07T11:44:05.599Z,16.40
2019-05-07T11:45:12.315Z,16.40
2019-05-07T11:46:32.785Z,16.40
2019-05-07T11:47:35.776Z,16.50
2019-05-07T11:48:45.186Z,16.60
2019-05-07T11:50:07.854Z,16.50
2019-05-07T11:51:33.578Z,16.40
2019-05-07T11:52:42.565Z,16.30
2019-05-07T11:54:03.311Z,16.20
2019-05-07T11:55:06.253Z,16.20
2019-05-07T11:56:09.410Z,16.30
2019-05-07T11:57:12.421Z,16.30
2019-05-07T11:58:15.374Z,16.30
2019-05-07T11:59:18.433Z,16.30
2019-05-07T12:00:29.645Z,16.30
2019-05-07T12:01:43.980Z,16.40
2019-05-07T12:02:37.662Z,16.40
2019-05-07T12:03:42.819Z,16.50
2019-05-07T12:04:46.677Z,16.50
2019-05-07T12:05:49.958Z,16.50
2019-05-07T12:06:52.959Z,16.60
2019-05-07T12:07:55.869Z,16.60
2019-05-07T12:08:58.799Z,16.70
2019-05-07T12:10:04.885Z,16.70
2019-05-07T12:11:07.182Z,16.80
2019-05-07T12:12:10.119Z,16.90
2019-05-07T12:13:13.101Z,16.90
2019-05-07T12:14:27.920Z,16.90
2019-05-07T12:15:21.714Z,16.90
2019-05-07T12:16:24.748Z,16.90
2019-05-07T12:17:27.706Z,16.90
2019-05-07T12:18:31.922Z,16.90
2019-05-07T12:19:35.380Z,16.80
2019-05-07T12:20:38.457Z,16.80
2019-05-07T12:21:43.985Z,16.80
2019-05-07T12:22:46.967Z,16.70
2019-05-07T12:23:49.907Z,16.70
2019-05-07T12:24:52.889Z,16.60
2019-05-07T12:25:55.817Z,16.60
2019-05-07T12:26:58.754Z,16.70
2019-05-07T12:28:02.402Z,16.70
2019-05-07T12:29:05.660Z,16.80
2019-05-07T12:30:12.186Z,16.80
2019-05-07T12:31:33.605Z,16.80
2019-05-07T12:33:14.058Z,17.00
2019-05-07T12:34:23.796Z,17.30
2019-05-07T12:35:26.735Z,17.70
2019-05-07T12:36:31.888Z,17.90
2019-05-07T12:37:34.432Z,18.00
2019-05-07T12:38:37.441Z,18.30
2019-05-07T12:39:42.312Z,18.40
2019-05-07T12:40:46.482Z,18.60
2019-05-07T12:41:49.454Z,18.60
2019-05-07T12:42:52.597Z,18.60
2019-05-07T12:43:55.533Z,18.60
2019-05-07T12:44:58.918Z,18.60
2019-05-07T12:46:02.844Z,18.70
2019-05-07T12:47:05.914Z,18.70
2019-05-07T12:48:11.365Z,18.70
2019-05-07T12:49:14.415Z,18.70
2019-05-07T12:50:17.419Z,18.60
2019-05-07T12:51:31.628Z,18.40
2019-05-07T12:52:44.560Z,18.30
2019-05-07T12:53:52.453Z,18.20
2019-05-07T12:55:16.213Z,18.00
2019-05-07T12:56:19.178Z,17.80
2019-05-07T12:57:22.133Z,17.70
2019-05-07T12:58:25.238Z,17.80
2019-05-07T12:59:28.233Z,17.90
2019-05-07T13:01:01.329Z,18.00
2019-05-07T13:02:37.962Z,18.10
2019-05-07T13:03:43.908Z,18.20
2019-05-07T13:04:46.858Z,18.40
2019-05-07T13:05:52.093Z,18.50
2019-05-07T13:07:05.716Z,18.60
2019-05-07T13:08:08.613Z,18.60
2019-05-07T13:09:12.617Z,18.50
2019-05-07T13:10:16.586Z,18.50
2019-05-07T13:11:21.731Z,18.40
2019-05-07T13:12:25.043Z,18.30
2019-05-07T13:13:28.033Z,18.30
2019-05-07T13:14:31.019Z,18.20
2019-05-07T13:15:34.929Z,18.20
2019-05-07T13:16:38.200Z,18.10
2019-05-07T13:17:41.709Z,18.00
2019-05-07T13:18:44.753Z,18.00
2019-05-07T13:19:48.189Z,17.90
2019-05-07T13:20:51.908Z,17.80
2019-05-07T13:21:55.039Z,17.70
2019-05-07T13:22:58.240Z,17.60
2019-05-07T13:24:02.769Z,17.60
2019-05-07T13:25:05.928Z,17.60
2019-05-07T13:26:08.881Z,17.60
2019-05-07T13:27:11.796Z,17.70
2019-05-07T13:28:15.197Z,17.70
2019-05-07T13:29:18.211Z,17.70
2019-05-07T13:30:22.224Z,17.70
2019-05-07T13:31:27.597Z,17.70
2019-05-07T13:32:32.000Z,17.70
2019-05-07T13:33:35.802Z,17.70
2019-05-07T13:34:38.837Z,17.70
2019-05-07T13:35:44.247Z,17.70
2019-05-07T13:36:54.390Z,17.80
2019-05-07T13:38:14.833Z,17.80
2019-05-07T13:39:23.510Z,17.90
2019-05-07T13:40:34.227Z,17.90
2019-05-07T13:41:56.789Z,17.90
2019-05-07T13:43:06.381Z,17.80
2019-05-07T13:44:24.746Z,18.10
2019-05-07T13:45:44.346Z,18.10
2019-05-07T13:46:47.623Z,18.00
2019-05-07T13:47:56.861Z,18.00
2019-05-07T13:49:01.944Z,18.10
2019-05-07T13:50:05.903Z,18.20
2019-05-07T13:51:09.101Z,18.30
2019-05-07T13:52:12.427Z,18.30
2019-05-07T13:53:15.994Z,18.30
2019-05-07T13:54:18.946Z,18.30
2019-05-07T13:55:22.196Z,18.40
2019-05-07T13:56:25.102Z,18.50
2019-05-07T13:57:28.011Z,18.60
2019-05-07T13:58:32.924Z,18.60
2019-05-07T13:59:36.076Z,18.70
2019-05-07T14:00:47.498Z,18.80
2019-05-07T14:02:00.163Z,18.80
2019-05-07T14:03:03.562Z,18.80
2019-05-07T14:04:06.521Z,18.80
2019-05-07T14:05:09.618Z,18.80
2019-05-07T14:06:16.635Z,18.90
2019-05-07T14:07:21.742Z,19.00
2019-05-07T14:08:26.891Z,19.00
2019-05-07T14:09:29.913Z,19.00
2019-05-07T14:10:33.820Z,18.90
2019-05-07T14:11:37.359Z,18.90
2019-05-07T14:12:42.539Z,18.90
2019-05-07T14:13:46.644Z,19.00
2019-05-07T14:14:49.808Z,19.10
2019-05-07T14:16:06.693Z,19.10
2019-05-07T14:17:09.637Z,19.20
2019-05-07T14:18:12.851Z,19.10
2019-05-07T14:19:15.993Z,19.10
2019-05-07T14:20:19.198Z,19.20
2019-05-07T14:21:22.250Z,19.20
2019-05-07T14:22:28.934Z,19.20
2019-05-07T14:23:32.516Z,19.20
2019-05-07T14:24:36.026Z,19.20
2019-05-07T14:25:38.941Z,19.10
2019-05-07T14:26:42.382Z,19.10
2019-05-07T14:27:45.380Z,19.00
2019-05-07T14:28:48.509Z,19.00
2019-05-07T14:29:52.194Z,19.00
2019-05-07T14:30:55.138Z,18.90
2019-05-07T14:32:17.497Z,18.90
2019-05-07T14:33:39.335Z,18.90
2019-05-07T14:35:07.745Z,19.00